Albany, New York
Traffic Map
Current Weather Conditions
Albany, New York
Overcast
Overcast
43°
Feels Like: 39°
Wind Chill: 39° Ceiling: 11000
Heat Index: 43° Visibility: 10mi
Dew Point: 36° Wind: 7mph
Humidity: 76% Direction: 170° (S)
Pressure: 29.92in Gusts: 0mph
Raw Report DataKALB 171051Z 17006KT 10SM FEW075 BKN110 BKN130 OVC200 06/02 A2992 RMK AO2 SLP132 T00610022
Traffic Incident Summary
Active as of:
Severity:
Category:
InformationThere was an issue retrieving the traffic information for this location. Please try a different location or try again shortly.
Advertisements